Time;durP1;ratioP1;P1;durP2;ratioP2;P2;SDS_P1;SDS_P2;PMS_P1;PMS_P2;Temp;Humidity;BMP_temperature;BMP_pressure;BME280_temperature;BME280_humidity;BME280_pressure;Samples;Min_cycle;Max_cycle;Signal;HPM_P1;HPM_P2
2022/09/08 00:02:38;;;;;;;28.73;25.60;;;25.30;60.80;;;;;;4803924;54;21067;-28
2022/09/08 00:07:41;;;;;;;27.73;24.83;;;25.30;60.80;;;;;;4801043;54;20991;-27
2022/09/08 00:12:42;;;;;;;27.37;24.52;;;25.30;60.80;;;;;;4814818;54;22062;-31
2022/09/08 00:17:43;;;;;;;26.62;23.85;;;25.30;60.90;;;;;;4807510;54;21103;-32
2022/09/08 00:22:44;;;;;;;25.77;23.00;;;25.40;61.00;;;;;;4811800;54;21063;-33
2022/09/08 00:27:44;;;;;;;26.83;24.12;;;25.30;60.90;;;;;;4796045;54;21011;-36
2022/09/08 00:32:45;;;;;;;26.37;23.60;;;25.30;61.10;;;;;;4807536;54;21016;-36
2022/09/08 00:37:47;;;;;;;25.08;22.48;;;25.40;61.20;;;;;;4795546;58;21040;-27
2022/09/08 00:42:56;;;;;;;25.90;22.33;;;25.30;61.00;;;;;;4840863;54;21063;-33
2022/09/08 00:48:02;;;;;;;24.90;22.35;;;25.30;61.10;;;;;;4800262;54;20992;-32
2022/09/08 00:53:10;;;;;;;24.37;21.93;;;25.30;61.10;;;;;;4802194;54;21059;-28
2022/09/08 00:58:12;;;;;;;23.90;21.40;;;25.30;61.10;;;;;;4808054;54;21059;-36
2022/09/08 01:03:15;;;;;;;23.83;21.35;;;25.30;61.20;;;;;;4802104;54;21474;-34
2022/09/08 01:14:09;;;;;;;24.00;21.50;;;25.30;61.20;;;;;;4800441;54;21158;-29
2022/09/08 01:19:30;;;;;;;25.27;22.65;;;25.30;61.20;;;;;;4813787;54;21064;-38
2022/09/08 01:27:21;;;;;;;21.67;19.52;;;25.30;61.30;;;;;;4799255;54;21044;-32
2022/09/08 01:32:23;;;;;;;22.62;20.25;;;25.30;61.30;;;;;;4807165;54;21024;-35
2022/09/08 01:37:24;;;;;;;22.62;20.25;;;25.30;61.40;;;;;;4804523;54;20984;-34
2022/09/08 01:42:25;;;;;;;22.60;20.30;;;25.30;61.40;;;;;;4797251;54;21004;-36
2022/09/08 01:47:26;;;;;;;22.25;19.33;;;25.30;61.40;;;;;;4851491;54;21020;-36
2022/09/08 01:52:27;;;;;;;22.27;19.35;;;25.30;61.40;;;;;;4794501;54;21497;-36
2022/09/08 01:57:28;;;;;;;22.58;19.83;;;25.30;61.50;;;;;;4796702;54;21079;-37
2022/09/08 02:02:28;;;;;;;21.73;19.42;;;25.30;61.50;;;;;;4841242;54;21016;-36
2022/09/08 02:07:34;;;;;;;20.40;18.25;;;25.30;61.60;;;;;;4795122;58;21083;-27
2022/09/08 02:12:35;;;;;;;22.87;20.10;;;25.30;61.50;;;;;;4815948;54;21004;-27
2022/09/08 02:17:36;;;;;;;20.45;18.15;;;25.30;61.60;;;;;;4885931;54;21012;-37
2022/09/08 02:22:36;;;;;;;20.73;18.50;;;25.30;61.60;;;;;;4813735;54;21000;-26
2022/09/08 02:27:37;;;;;;;20.30;18.02;;;25.30;61.70;;;;;;4818746;54;21028;-25
2022/09/08 02:32:39;;;;;;;21.25;19.00;;;25.30;61.70;;;;;;4809878;54;21056;-26
2022/09/08 02:37:40;;;;;;;19.65;17.48;;;25.30;61.60;;;;;;4832324;54;21446;-26
2022/09/08 02:42:41;;;;;;;19.23;17.17;;;25.30;61.70;;;;;;4822117;54;21024;-26
2022/09/08 02:47:42;;;;;;;19.05;16.98;;;25.30;61.60;;;;;;4817851;54;21004;-34
2022/09/08 02:52:43;;;;;;;20.58;17.85;;;25.30;61.60;;;;;;4794817;58;21802;-27
2022/09/08 02:57:43;;;;;;;19.52;17.40;;;25.30;61.70;;;;;;4795788;54;21458;-25
2022/09/08 03:02:46;;;;;;;19.15;17.15;;;25.30;61.70;;;;;;4802289;54;21063;-24
2022/09/08 03:07:46;;;;;;;18.50;16.60;;;25.30;61.70;;;;;;4795336;58;21545;-25
2022/09/08 03:12:47;;;;;;;17.65;15.75;;;25.20;61.70;;;;;;4844320;54;21071;-25
2022/09/08 03:17:48;;;;;;;19.12;16.87;;;25.20;61.70;;;;;;4810072;54;20996;-25
2022/09/08 03:22:50;;;;;;;18.50;16.60;;;25.30;61.80;;;;;;4821286;54;21004;-27
2022/09/08 03:27:51;;;;;;;17.70;15.82;;;25.30;61.80;;;;;;4820893;54;20987;-25
2022/09/08 03:32:52;;;;;;;17.92;15.82;;;25.30;61.80;;;;;;4817348;54;21052;-26
2022/09/08 03:37:54;;;;;;;17.37;15.50;;;25.30;61.80;;;;;;4796003;55;21023;-24
2022/09/08 03:42:55;;;;;;;17.17;15.35;;;25.30;61.80;;;;;;4809630;54;21513;-24
2022/09/08 03:47:56;;;;;;;17.17;15.32;;;25.20;61.90;;;;;;4807370;54;21019;-34
2022/09/08 03:52:57;;;;;;;16.55;14.85;;;25.30;61.90;;;;;;4798560;54;21023;-25
2022/09/08 03:57:59;;;;;;;15.88;14.30;;;25.20;61.80;;;;;;4800400;54;21036;-26
2022/09/08 04:03:00;;;;;;;16.58;14.87;;;25.20;61.80;;;;;;4795441;55;21470;-33
2022/09/08 04:08:01;;;;;;;16.65;14.13;;;25.30;61.50;;;;;;4795737;58;21549;-34
2022/09/08 04:13:02;;;;;;;16.40;14.70;;;25.30;61.90;;;;;;4840622;54;21060;-34
2022/09/08 04:18:03;;;;;;;15.10;13.60;;;25.30;61.90;;;;;;4836411;54;20992;-25
2022/09/08 04:23:05;;;;;;;15.75;14.15;;;25.30;62.00;;;;;;4816911;54;21088;-30
2022/09/08 04:28:05;;;;;;;17.25;14.15;;;25.20;61.80;;;;;;4865702;54;21482;-32
2022/09/08 04:33:06;;;;;;;14.63;13.07;;;25.20;61.80;;;;;;4830369;54;21004;-30
2022/09/08 04:38:07;;;;;;;14.48;12.93;;;25.20;61.80;;;;;;4797788;54;21017;-31
2022/09/08 04:43:08;;;;;;;14.85;13.35;;;25.20;61.80;;;;;;4795135;58;21011;-26
2022/09/08 04:48:09;;;;;;;13.82;12.43;;;25.20;61.80;;;;;;4795266;58;21039;-34
2022/09/08 04:53:10;;;;;;;14.98;13.40;;;25.20;61.80;;;;;;4816351;54;21063;-35
2022/09/08 04:58:11;;;;;;;13.68;12.32;;;25.20;61.70;;;;;;4795590;58;21080;-26
2022/09/08 05:03:11;;;;;;;15.10;12.90;;;25.20;61.70;;;;;;4807327;54;21612;-25
2022/09/08 05:08:12;;;;;;;13.85;12.15;;;25.20;61.70;;;;;;4795958;55;21003;-25
2022/09/08 05:13:13;;;;;;;14.87;13.35;;;25.20;61.70;;;;;;4829288;54;21024;-25
2022/09/08 05:18:14;;;;;;;13.27;11.85;;;25.30;61.80;;;;;;4795859;58;21098;-25
2022/09/08 05:23:15;;;;;;;13.38;11.98;;;25.20;61.70;;;;;;4826408;54;21085;-27
2022/09/08 05:28:16;;;;;;;13.55;12.15;;;25.20;61.70;;;;;;4818287;54;21490;-33
2022/09/08 05:33:17;;;;;;;13.70;12.25;;;25.20;61.60;;;;;;4835434;54;21478;-36
2022/09/08 05:38:18;;;;;;;13.68;12.27;;;25.20;61.60;;;;;;4827024;54;21505;-27
2022/09/08 05:43:19;;;;;;;12.93;11.45;;;25.20;61.60;;;;;;4817751;54;21075;-33
2022/09/08 05:48:20;;;;;;;14.00;12.60;;;25.20;61.60;;;;;;4830538;54;21012;-28
2022/09/08 05:53:21;;;;;;;13.88;12.40;;;25.20;61.60;;;;;;4826688;54;21007;-26
2022/09/08 05:58:22;;;;;;;13.85;12.40;;;25.20;61.60;;;;;;4794938;54;21044;-33
2022/09/08 06:03:23;;;;;;;12.25;11.05;;;25.20;61.60;;;;;;4810099;54;21052;-36
2022/09/08 06:08:25;;;;;;;12.90;11.57;;;25.20;61.60;;;;;;4796394;54;21087;-27
2022/09/08 06:13:26;;;;;;;13.05;11.70;;;25.20;61.60;;;;;;4797309;54;21020;-30
2022/09/08 06:18:27;;;;;;;12.98;11.52;;;25.20;61.60;;;;;;4812973;54;21063;-35
2022/09/08 06:23:28;;;;;;;13.07;11.65;;;25.20;61.60;;;;;;4797052;54;21048;-32
2022/09/08 06:28:40;;;;;;;12.75;11.15;;;25.20;61.60;;;;;;4822679;54;21019;-34
2022/09/08 06:33:42;;;;;;;12.65;11.35;;;25.20;61.60;;;;;;4816759;54;20984;-35
2022/09/08 06:39:02;;;;;;;13.65;11.43;;;25.20;61.60;;;;;;4822138;54;22239;-34
2022/09/08 06:44:09;;;;;;;12.32;11.02;;;25.20;61.60;;;;;;4796551;54;20988;-29
2022/09/08 06:49:11;;;;;;;13.23;11.10;;;25.20;61.60;;;;;;4795131;58;21047;-26
2022/09/08 06:54:43;;;;;;;12.88;11.23;;;25.20;61.60;;;;;;4796050;55;22456;-33
2022/09/08 07:00:01;;;;;;;15.93;13.07;;;25.20;61.70;;;;;;4792816;58;21052;-33
2022/09/08 07:05:28;;;;;;;28.55;17.45;;;25.20;62.70;;;;;;4810620;54;21404;-32
2022/09/08 07:10:41;;;;;;;30.42;18.58;;;25.20;63.80;;;;;;4848296;54;21111;-31
2022/09/08 07:16:19;;;;;;;29.73;18.50;;;25.20;64.20;;;;;;4819345;54;21166;-36
2022/09/08 07:23:02;;;;;;;36.50;19.73;;;25.20;64.60;;;;;;4847279;54;21032;-25
2022/09/08 07:28:18;;;;;;;42.62;21.73;;;25.20;64.70;;;;;;4809745;54;21011;-28
2022/09/08 07:34:53;;;;;;;55.85;31.37;;;25.20;64.80;;;;;;4807899;54;21074;-26
2022/09/08 07:40:01;;;;;;;39.08;27.15;;;25.20;65.50;;;;;;4827863;54;21020;-36
2022/09/08 07:45:06;;;;;;;45.97;25.42;;;25.20;65.90;;;;;;4800201;54;21036;-34
2022/09/08 07:55:54;;;;;;;31.37;23.67;;;25.30;66.00;;;;;;4794306;54;21119;-26
2022/09/08 08:02:46;;;;;;;34.80;23.27;;;25.30;65.80;;;;;;4794371;55;21020;-26
2022/09/08 08:08:26;;;;;;;36.78;24.02;;;25.30;65.70;;;;;;4795968;54;20999;-28
2022/09/08 08:15:09;;;;;;;48.90;31.92;;;25.30;66.10;;;;;;4823853;54;21015;-33
2022/09/08 08:22:18;;;;;;;216.02;119.00;;;25.40;66.10;;;;;;4888685;54;21514;-27
2022/09/08 08:27:44;;;;;;;393.12;209.48;;;25.50;66.60;;;;;;4819784;54;21000;-30
2022/09/08 08:33:11;;;;;;;395.50;218.48;;;25.50;66.70;;;;;;4801216;54;21537;-29
2022/09/08 08:38:20;;;;;;;391.98;217.40;;;25.50;66.60;;;;;;4798451;54;21102;-33
2022/09/08 08:46:42;;;;;;;334.62;180.60;;;25.60;66.50;;;;;;4833785;54;20980;-34
2022/09/08 08:56:44;;;;;;;262.08;142.40;;;25.60;66.30;;;;;;4800548;54;21029;-26
2022/09/08 09:05:13;;;;;;;208.13;116.25;;;25.70;66.60;;;;;;4834894;54;21024;-32
2022/09/08 09:11:14;;;;;;;160.05;93.55;;;25.80;66.70;;;;;;4805472;54;21043;-31
2022/09/08 09:20:36;;;;;;;150.73;87.22;;;25.70;66.40;;;;;;4863227;54;21597;-29
2022/09/08 09:25:52;;;;;;;141.68;79.30;;;25.80;66.30;;;;;;4846005;54;21000;-31
2022/09/08 09:38:00;;;;;;;129.98;77.12;;;25.80;66.10;;;;;;4808141;54;21486;-33
2022/09/08 09:43:41;;;;;;;113.80;67.72;;;25.80;66.00;;;;;;4808988;54;21008;-36
2022/09/08 09:51:58;;;;;;;105.25;67.50;;;25.80;65.60;;;;;;4795372;55;21016;-34
2022/09/08 09:57:33;;;;;;;98.90;66.62;;;25.90;65.40;;;;;;4813304;54;21120;-34
2022/09/08 10:04:03;;;;;;;87.88;58.47;;;25.90;65.20;;;;;;4802023;54;21480;-26
2022/09/08 10:09:43;;;;;;;87.37;57.22;;;26.00;65.00;;;;;;4813544;54;21096;-32
2022/09/08 10:15:16;;;;;;;71.57;52.90;;;26.00;64.80;;;;;;4802053;54;20972;-32
2022/09/08 10:25:01;;;;;;;69.12;47.40;;;26.00;64.40;;;;;;4795625;56;21032;-35
2022/09/08 10:30:37;;;;;;;56.60;40.88;;;26.10;63.80;;;;;;4803527;54;21040;-33
2022/09/08 10:35:49;;;;;;;53.77;37.23;;;26.20;63.60;;;;;;4806687;54;21541;-31
2022/09/08 10:44:50;;;;;;;53.50;37.85;;;26.20;63.60;;;;;;4807240;54;21067;-36
2022/09/08 10:50:28;;;;;;;46.05;33.58;;;26.30;62.90;;;;;;4816055;54;21573;-32
2022/09/08 10:59:25;;;;;;;44.42;32.10;;;26.30;62.60;;;;;;4856319;54;21063;-31
2022/09/08 11:06:42;;;;;;;45.22;33.10;;;26.30;62.00;;;;;;4843155;54;21059;-35
2022/09/08 11:14:07;;;;;;;44.38;35.33;;;26.40;61.80;;;;;;4835660;54;21011;-33
2022/09/08 11:19:37;;;;;;;56.05;41.22;;;26.40;62.10;;;;;;4801411;54;20988;-29
2022/09/08 11:29:42;;;;;;;58.03;43.40;;;26.40;62.00;;;;;;4812004;54;21926;-35
2022/09/08 11:35:20;;;;;;;58.20;42.20;;;26.50;61.90;;;;;;4807340;54;21486;-30
2022/09/08 11:41:15;;;;;;;56.85;40.90;;;26.40;61.90;;;;;;4807078;54;21414;-33
2022/09/08 11:49:05;;;;;;;54.70;39.50;;;26.40;61.90;;;;;;4813158;54;21027;-28
2022/09/08 12:00:06;;;;;;;53.80;40.55;;;26.30;61.90;;;;;;4822490;54;21485;-29
2022/09/08 12:08:02;;;;;;;51.50;38.92;;;26.30;61.90;;;;;;4809384;54;21132;-33
2022/09/08 12:13:36;;;;;;;61.37;44.20;;;26.30;61.80;;;;;;4829685;54;21485;-26
2022/09/08 12:18:55;;;;;;;56.58;40.95;;;26.40;59.40;;;;;;4823696;54;21103;-33
2022/09/08 12:24:26;;;;;;;60.12;44.15;;;26.60;58.90;;;;;;4794031;54;21055;-35
2022/09/08 12:34:48;;;;;;;60.00;42.33;;;26.60;58.60;;;;;;4827613;54;21028;-38
2022/09/08 12:41:41;;;;;;;60.17;41.87;;;26.70;58.20;;;;;;4795782;54;21015;-33
2022/09/08 12:49:38;;;;;;;54.63;38.00;;;26.80;58.00;;;;;;4815971;54;21000;-25
2022/09/08 12:57:56;;;;;;;37.70;27.27;;;26.90;58.10;;;;;;4816729;54;22536;-30
2022/09/08 13:03:33;;;;;;;42.42;29.65;;;26.90;57.60;;;;;;4819098;54;21627;-32
2022/09/08 13:09:01;;;;;;;110.00;65.93;;;26.90;57.50;;;;;;4816163;54;21478;-35
2022/09/08 13:14:07;;;;;;;138.07;87.90;;;26.90;57.20;;;;;;4808072;54;21514;-30
2022/09/08 13:24:10;;;;;;;139.30;91.95;;;26.90;57.10;;;;;;4800651;54;21166;-34
2022/09/08 13:32:06;;;;;;;115.65;79.15;;;27.00;57.10;;;;;;4802508;54;21138;-33
2022/09/08 13:44:14;;;;;;;97.20;66.70;;;27.00;56.80;;;;;;4810607;54;21000;-32
2022/09/08 13:53:58;;;;;;;85.90;60.03;;;27.10;57.00;;;;;;4799198;54;21044;-37
2022/09/08 13:59:23;;;;;;;67.28;47.25;;;27.10;57.20;;;;;;4795035;54;21024;-34
2022/09/08 14:04:46;;;;;;;66.87;46.72;;;27.10;57.10;;;;;;4809138;54;21143;-33
2022/09/08 14:13:04;;;;;;;63.47;44.78;;;27.10;57.10;;;;;;4820610;54;21640;-36
2022/09/08 14:25:19;;;;;;;55.25;42.50;;;27.20;57.00;;;;;;4811330;54;21012;-28
2022/09/08 14:30:23;;;;;;;58.92;41.55;;;27.20;57.00;;;;;;4800213;54;21039;-27
2022/09/08 14:35:40;;;;;;;57.28;40.60;;;27.00;57.60;;;;;;4861542;54;22230;-37
2022/09/08 14:41:10;;;;;;;49.95;39.45;;;26.90;58.00;;;;;;4792682;58;21004;-28
2022/09/08 14:47:47;;;;;;;54.17;40.92;;;26.80;58.30;;;;;;4809994;54;20999;-36
2022/09/08 14:54:38;;;;;;;52.70;39.72;;;26.70;58.60;;;;;;4798504;54;21659;-37
2022/09/08 15:00:38;;;;;;;50.67;38.55;;;26.60;58.90;;;;;;4812317;54;21154;-37
2022/09/08 15:05:44;;;;;;;46.92;38.38;;;26.60;59.20;;;;;;4874825;54;21458;-26
2022/09/08 15:11:49;;;;;;;48.33;37.28;;;26.60;59.40;;;;;;4836431;54;21036;-38
2022/09/08 15:16:58;;;;;;;48.15;38.20;;;26.50;59.50;;;;;;4795340;58;21023;-30
2022/09/08 15:21:59;;;;;;;48.92;37.80;;;26.40;59.60;;;;;;4851932;54;21055;-32
2022/09/08 15:27:22;;;;;;;46.85;37.55;;;26.40;59.70;;;;;;4795629;58;21060;-35
2022/09/08 15:33:51;;;;;;;45.67;36.92;;;26.40;59.90;;;;;;4801264;54;22054;-33
2022/09/08 15:39:14;;;;;;;43.95;36.72;;;26.40;60.10;;;;;;4836851;54;20995;-38
2022/09/08 15:44:47;;;;;;;46.67;36.45;;;26.30;60.10;;;;;;4842610;54;21040;-36
2022/09/08 15:50:23;;;;;;;44.92;36.30;;;26.30;60.20;;;;;;4803727;54;21494;-31
2022/09/08 15:55:59;;;;;;;47.22;35.67;;;26.30;60.40;;;;;;4815243;54;21035;-29
2022/09/08 16:01:13;;;;;;;46.50;35.40;;;26.30;60.50;;;;;;4848987;54;21031;-35
2022/09/08 16:09:31;;;;;;;40.47;34.35;;;26.20;60.50;;;;;;4810056;54;21118;-36
2022/09/08 16:14:55;;;;;;;43.85;35.67;;;26.20;60.60;;;;;;4822239;54;21008;-26
2022/09/08 16:22:35;;;;;;;42.25;35.03;;;26.20;60.70;;;;;;4816377;54;21615;-37
2022/09/08 16:27:57;;;;;;;40.88;33.50;;;26.20;60.80;;;;;;4813021;54;21620;-31
2022/09/08 16:39:59;;;;;;;42.08;34.17;;;26.20;60.90;;;;;;4794519;58;21610;-32
2022/09/08 16:45:00;;;;;;;43.40;33.45;;;26.20;61.00;;;;;;4802902;54;20988;-34
2022/09/08 16:52:01;;;;;;;41.22;34.38;;;26.10;61.00;;;;;;4814420;54;21020;-38
2022/09/08 16:57:22;;;;;;;42.47;33.00;;;26.20;61.10;;;;;;4801955;54;21056;-26
2022/09/08 17:02:50;;;;;;;37.58;31.75;;;26.20;61.20;;;;;;4813024;54;21486;-37
2022/09/08 17:08:14;;;;;;;42.13;32.78;;;26.10;61.20;;;;;;4810276;54;21023;-35
2022/09/08 17:13:23;;;;;;;39.72;32.55;;;26.10;61.30;;;;;;4795103;54;21538;-25
2022/09/08 17:19:57;;;;;;;39.53;33.30;;;26.10;61.30;;;;;;4818570;54;20996;-32
2022/09/08 17:25:23;;;;;;;37.08;31.92;;;26.10;61.40;;;;;;4804850;54;21588;-29
2022/09/08 17:30:27;;;;;;;37.83;32.55;;;26.10;61.50;;;;;;4812647;54;20980;-26
2022/09/08 17:36:20;;;;;;;38.28;32.28;;;26.10;61.50;;;;;;4825785;54;21494;-33
2022/09/08 17:45:01;;;;;;;39.30;32.97;;;26.10;61.60;;;;;;4831747;54;21454;-30
2022/09/08 17:50:30;;;;;;;37.53;31.70;;;26.10;61.70;;;;;;4794633;55;21165;-31
2022/09/08 17:59:21;;;;;;;35.85;30.92;;;26.00;61.70;;;;;;4820132;54;21430;-31
2022/09/08 18:04:29;;;;;;;36.42;30.73;;;26.00;61.80;;;;;;4824826;54;21032;-37
2022/09/08 18:12:20;;;;;;;36.83;30.50;;;26.00;61.80;;;;;;4818235;54;21007;-27
2022/09/08 18:17:30;;;;;;;35.40;30.95;;;26.00;61.80;;;;;;4800851;54;21015;-27
2022/09/08 18:24:20;;;;;;;40.50;31.80;;;26.00;61.90;;;;;;4843838;54;21537;-28
2022/09/08 18:30:28;;;;;;;39.50;30.50;;;26.00;61.90;;;;;;4835267;54;21953;-31
2022/09/08 18:38:49;;;;;;;33.25;29.55;;;26.00;62.00;;;;;;4855171;54;21063;-33
2022/09/08 18:44:16;;;;;;;35.50;29.75;;;26.00;62.00;;;;;;4814058;54;21028;-26
2022/09/08 18:51:40;;;;;;;37.42;30.40;;;26.00;62.10;;;;;;4795531;58;21047;-37
2022/09/08 18:56:55;;;;;;;34.03;30.17;;;26.00;62.10;;;;;;4853601;54;21644;-26
2022/09/08 19:02:14;;;;;;;35.17;30.20;;;26.00;62.10;;;;;;4845114;54;21499;-29
2022/09/08 19:09:59;;;;;;;34.10;30.23;;;26.00;62.30;;;;;;4801505;54;21585;-38
2022/09/08 19:15:02;;;;;;;;;;;26.00;62.20;;;;;;4816093;54;21557;-25
2022/09/08 19:20:15;;;;;;;35.63;30.58;;;26.00;62.30;;;;;;4817848;54;20294;-25
2022/09/08 19:25:21;;;;;;;33.90;29.35;;;25.90;62.30;;;;;;4825018;54;21126;-28
2022/09/08 19:30:31;;;;;;;33.25;29.63;;;25.90;62.30;;;;;;4832319;54;21028;-27
2022/09/08 19:35:38;;;;;;;32.88;29.27;;;25.90;62.40;;;;;;4795607;54;21505;-31
2022/09/08 19:41:15;;;;;;;33.47;28.45;;;25.90;62.40;;;;;;4834537;54;21083;-36
2022/09/08 19:53:33;;;;;;;30.55;27.20;;;25.90;62.40;;;;;;4812849;54;21482;-24
2022/09/08 19:58:39;;;;;;;31.98;27.87;;;25.90;62.50;;;;;;4796420;54;21028;-27
2022/09/08 20:04:18;;;;;;;31.25;27.60;;;25.90;62.60;;;;;;4811904;54;21486;-25
2022/09/08 20:09:38;;;;;;;31.55;27.87;;;25.90;62.70;;;;;;4821818;54;21028;-30
2022/09/08 20:15:23;;;;;;;30.58;27.33;;;25.90;62.60;;;;;;4819939;54;21557;-26
2022/09/08 20:20:31;;;;;;;30.10;26.87;;;25.90;62.70;;;;;;4797348;54;21066;-28
2022/09/08 20:26:27;;;;;;;30.08;26.87;;;25.90;62.70;;;;;;4798580;54;21016;-32
2022/09/08 20:33:19;;;;;;;29.57;26.40;;;25.90;62.70;;;;;;4812594;54;21064;-28
2022/09/08 20:40:16;;;;;;;33.15;27.48;;;25.90;62.60;;;;;;4809747;54;21118;-28
2022/09/08 20:46:22;;;;;;;28.98;25.88;;;25.90;62.90;;;;;;4796301;58;21577;-25
2022/09/08 20:51:30;;;;;;;27.77;24.50;;;25.90;62.90;;;;;;4815066;54;21517;-28
2022/09/08 20:56:57;;;;;;;32.53;25.95;;;25.90;62.90;;;;;;4809653;54;21004;-28
2022/09/08 21:02:17;;;;;;;27.98;24.98;;;25.90;62.90;;;;;;4804871;54;21043;-25
2022/09/08 21:07:29;;;;;;;27.10;24.17;;;25.90;63.00;;;;;;4826892;54;21629;-25
2022/09/08 21:12:32;;;;;;;27.55;24.17;;;25.90;63.00;;;;;;4815022;54;21482;-26
2022/09/08 21:17:44;;;;;;;28.60;24.83;;;25.90;63.00;;;;;;4814240;54;21474;-31
2022/09/08 21:23:04;;;;;;;26.70;23.85;;;25.90;63.10;;;;;;4836011;54;21036;-30
2022/09/08 21:28:15;;;;;;;27.70;24.70;;;25.90;63.10;;;;;;4796166;58;21052;-27
2022/09/08 21:33:52;;;;;;;29.23;23.80;;;25.90;63.20;;;;;;4796402;54;21047;-31
2022/09/08 21:38:54;;;;;;;27.60;24.17;;;25.80;63.10;;;;;;4826424;54;21558;-25
2022/09/08 21:44:43;;;;;;;27.08;23.67;;;25.90;63.20;;;;;;4815507;54;21055;-25
2022/09/08 21:49:48;;;;;;;27.17;23.12;;;25.80;63.10;;;;;;4828004;54;21020;-25
2022/09/08 21:54:52;;;;;;;27.23;23.38;;;25.80;63.20;;;;;;4809558;54;21036;-27
2022/09/08 22:00:23;;;;;;;27.10;22.58;;;25.80;63.20;;;;;;4801159;54;21573;-28
2022/09/08 22:05:35;;;;;;;26.15;23.35;;;25.90;63.20;;;;;;4810458;54;21489;-31
2022/09/08 22:10:45;;;;;;;25.70;23.00;;;25.80;63.20;;;;;;4795590;55;21613;-25
2022/09/08 22:16:14;;;;;;;25.52;22.25;;;25.80;63.20;;;;;;4857235;54;21064;-24
2022/09/08 22:21:42;;;;;;;25.58;22.90;;;25.80;63.20;;;;;;4798154;54;21012;-35
2022/09/08 22:27:04;;;;;;;24.92;22.33;;;25.80;63.20;;;;;;4795303;58;21031;-31
2022/09/08 22:32:17;;;;;;;25.55;22.33;;;25.80;63.20;;;;;;4823353;54;21506;-29
2022/09/08 22:37:45;;;;;;;24.73;22.10;;;25.80;63.20;;;;;;4795792;54;21051;-32
2022/09/08 22:43:19;;;;;;;24.95;21.17;;;25.80;63.30;;;;;;4795329;58;21530;-27
2022/09/08 22:48:36;;;;;;;25.50;22.10;;;25.80;63.20;;;;;;4799373;54;21454;-27
2022/09/08 22:53:38;;;;;;;24.87;21.35;;;25.80;63.30;;;;;;4795024;58;21489;-30
2022/09/08 22:58:42;;;;;;;24.50;21.48;;;25.80;63.30;;;;;;4900694;54;21056;-31
2022/09/08 23:03:56;;;;;;;23.17;20.15;;;25.80;63.20;;;;;;4824895;54;21000;-26
2022/09/08 23:10:12;;;;;;;23.52;21.12;;;25.80;63.30;;;;;;4836415;54;20991;-27
2022/09/08 23:15:22;;;;;;;23.27;20.80;;;25.80;63.30;;;;;;4815062;54;21490;-31
2022/09/08 23:21:03;;;;;;;24.20;20.58;;;25.80;63.30;;;;;;4795543;58;21246;-32
2022/09/08 23:26:30;;;;;;;24.15;20.95;;;25.80;63.30;;;;;;4820691;54;21058;-35
2022/09/08 23:33:45;;;;;;;22.65;20.35;;;25.80;63.30;;;;;;4811983;54;20995;-37
2022/09/08 23:40:56;;;;;;;23.15;20.48;;;25.80;63.30;;;;;;4812733;54;21004;-34
2022/09/08 23:46:14;;;;;;;22.50;19.75;;;25.80;63.30;;;;;;4824540;54;21474;-34
2022/09/08 23:51:19;;;;;;;22.08;19.67;;;25.80;63.30;;;;;;4834353;54;21008;-31
2022/09/08 23:56:23;;;;;;;21.73;19.40;;;25.80;63.30;;;;;;4810022;54;21501;-28
